sensor_id;sensor_type;location;lat;lon;timestamp;temperature;humidity
10245;DHT22;5167;52.164;10.530;2022-09-12T00:00:10;16.60;46.20
10245;DHT22;5167;52.164;10.530;2022-09-12T00:02:36;16.60;46.20
10245;DHT22;5167;52.164;10.530;2022-09-12T00:05:02;16.60;46.50
10245;DHT22;5167;52.164;10.530;2022-09-12T00:07:28;16.60;45.90
10245;DHT22;5167;52.164;10.530;2022-09-12T00:09:53;16.60;46.80
10245;DHT22;5167;52.164;10.530;2022-09-12T00:12:19;16.60;46.40
10245;DHT22;5167;52.164;10.530;2022-09-12T00:14:45;16.50;46.40
10245;DHT22;5167;52.164;10.530;2022-09-12T00:17:10;16.50;46.70
10245;DHT22;5167;52.164;10.530;2022-09-12T00:19:36;16.40;46.10
10245;DHT22;5167;52.164;10.530;2022-09-12T00:22:02;16.40;45.00
10245;DHT22;5167;52.164;10.530;2022-09-12T00:24:28;16.40;46.50
10245;DHT22;5167;52.164;10.530;2022-09-12T00:26:53;16.40;46.90
10245;DHT22;5167;52.164;10.530;2022-09-12T00:29:20;16.30;47.20
10245;DHT22;5167;52.164;10.530;2022-09-12T00:31:46;16.30;47.40
10245;DHT22;5167;52.164;10.530;2022-09-12T00:34:12;16.30;45.70
10245;DHT22;5167;52.164;10.530;2022-09-12T00:36:38;16.20;46.40
10245;DHT22;5167;52.164;10.530;2022-09-12T00:39:05;16.20;46.10
10245;DHT22;5167;52.164;10.530;2022-09-12T00:41:34;16.20;46.80
10245;DHT22;5167;52.164;10.530;2022-09-12T00:49:24;16.10;47.10
10245;DHT22;5167;52.164;10.530;2022-09-12T00:54:24;16.00;47.40
10245;DHT22;5167;52.164;10.530;2022-09-12T00:56:53;16.00;47.10
10245;DHT22;5167;52.164;10.530;2022-09-12T00:59:23;16.00;48.40
10245;DHT22;5167;52.164;10.530;2022-09-12T01:01:50;15.90;48.20
10245;DHT22;5167;52.164;10.530;2022-09-12T01:04:19;15.90;49.00
10245;DHT22;5167;52.164;10.530;2022-09-12T01:06:47;15.80;49.10
10245;DHT22;5167;52.164;10.530;2022-09-12T01:09:18;15.80;49.30
10245;DHT22;5167;52.164;10.530;2022-09-12T01:11:45;15.80;49.90
10245;DHT22;5167;52.164;10.530;2022-09-12T01:14:14;15.80;49.70
10245;DHT22;5167;52.164;10.530;2022-09-12T01:16:40;15.80;48.90
10245;DHT22;5167;52.164;10.530;2022-09-12T01:27:42;15.70;49.40
10245;DHT22;5167;52.164;10.530;2022-09-12T01:33:35;15.60;48.20
10245;DHT22;5167;52.164;10.530;2022-09-12T01:36:33;15.70;47.40
10245;DHT22;5167;52.164;10.530;2022-09-12T01:47:20;15.40;49.10
10245;DHT22;5167;52.164;10.530;2022-09-12T01:50:02;15.40;49.80
10245;DHT22;5167;52.164;10.530;2022-09-12T01:52:47;15.40;49.10
10245;DHT22;5167;52.164;10.530;2022-09-12T01:57:54;15.40;50.40
10245;DHT22;5167;52.164;10.530;2022-09-12T02:00:22;15.30;50.10
10245;DHT22;5167;52.164;10.530;2022-09-12T02:02:52;15.30;50.20
10245;DHT22;5167;52.164;10.530;2022-09-12T02:05:36;15.30;50.20
10245;DHT22;5167;52.164;10.530;2022-09-12T02:08:17;15.20;49.60
10245;DHT22;5167;52.164;10.530;2022-09-12T02:11:07;15.30;50.30
10245;DHT22;5167;52.164;10.530;2022-09-12T02:13:47;15.30;49.90
10245;DHT22;5167;52.164;10.530;2022-09-12T02:16:19;15.20;50.30
10245;DHT22;5167;52.164;10.530;2022-09-12T02:18:52;15.30;50.40
10245;DHT22;5167;52.164;10.530;2022-09-12T02:21:22;15.20;50.30
10245;DHT22;5167;52.164;10.530;2022-09-12T02:23:54;15.20;50.40
10245;DHT22;5167;52.164;10.530;2022-09-12T02:26:23;15.20;50.90
10245;DHT22;5167;52.164;10.530;2022-09-12T02:28:50;15.20;51.20
10245;DHT22;5167;52.164;10.530;2022-09-12T02:34:12;15.20;49.90
10245;DHT22;5167;52.164;10.530;2022-09-12T02:36:59;15.10;49.80
10245;DHT22;5167;52.164;10.530;2022-09-12T02:39:26;15.10;50.80
10245;DHT22;5167;52.164;10.530;2022-09-12T02:41:54;15.10;51.10
10245;DHT22;5167;52.164;10.530;2022-09-12T02:44:23;15.10;51.60
10245;DHT22;5167;52.164;10.530;2022-09-12T02:46:53;15.10;52.50
10245;DHT22;5167;52.164;10.530;2022-09-12T02:49:20;15.00;52.40
10245;DHT22;5167;52.164;10.530;2022-09-12T02:51:47;15.00;52.70
10245;DHT22;5167;52.164;10.530;2022-09-12T02:54:15;15.00;52.00
10245;DHT22;5167;52.164;10.530;2022-09-12T02:56:43;15.00;51.90
10245;DHT22;5167;52.164;10.530;2022-09-12T02:59:11;14.90;52.50
10245;DHT22;5167;52.164;10.530;2022-09-12T03:07:55;14.90;52.40
10245;DHT22;5167;52.164;10.530;2022-09-12T03:13:22;14.80;51.10
10245;DHT22;5167;52.164;10.530;2022-09-12T03:27:18;14.60;50.90
10245;DHT22;5167;52.164;10.530;2022-09-12T03:29:46;14.60;50.70
10245;DHT22;5167;52.164;10.530;2022-09-12T03:32:13;14.50;51.60
10245;DHT22;5167;52.164;10.530;2022-09-12T03:34:39;14.60;51.50
10245;DHT22;5167;52.164;10.530;2022-09-12T03:37:04;14.50;50.60
10245;DHT22;5167;52.164;10.530;2022-09-12T03:39:30;14.50;50.40
10245;DHT22;5167;52.164;10.530;2022-09-12T03:41:56;14.50;51.70
10245;DHT22;5167;52.164;10.530;2022-09-12T03:44:22;14.50;51.30
10245;DHT22;5167;52.164;10.530;2022-09-12T03:46:48;14.40;51.40
10245;DHT22;5167;52.164;10.530;2022-09-12T03:49:14;14.40;51.30
10245;DHT22;5167;52.164;10.530;2022-09-12T03:51:40;14.50;50.90
10245;DHT22;5167;52.164;10.530;2022-09-12T03:54:07;14.40;50.80
10245;DHT22;5167;52.164;10.530;2022-09-12T03:56:33;14.40;51.30
10245;DHT22;5167;52.164;10.530;2022-09-12T03:58:59;14.40;51.00
10245;DHT22;5167;52.164;10.530;2022-09-12T04:01:25;14.30;50.20
10245;DHT22;5167;52.164;10.530;2022-09-12T04:03:51;14.40;51.20
10245;DHT22;5167;52.164;10.530;2022-09-12T04:06:21;14.30;51.10
10245;DHT22;5167;52.164;10.530;2022-09-12T04:08:48;14.30;50.20
10245;DHT22;5167;52.164;10.530;2022-09-12T04:11:15;14.30;50.40
10245;DHT22;5167;52.164;10.530;2022-09-12T04:13:43;14.30;50.10
10245;DHT22;5167;52.164;10.530;2022-09-12T04:16:09;14.30;50.40
10245;DHT22;5167;52.164;10.530;2022-09-12T04:18:35;14.30;50.60
10245;DHT22;5167;52.164;10.530;2022-09-12T04:21:10;14.20;50.80
10245;DHT22;5167;52.164;10.530;2022-09-12T04:23:36;14.20;51.50
10245;DHT22;5167;52.164;10.530;2022-09-12T04:26:03;14.20;51.50
10245;DHT22;5167;52.164;10.530;2022-09-12T04:28:31;14.20;50.90
10245;DHT22;5167;52.164;10.530;2022-09-12T04:31:19;14.20;51.10
10245;DHT22;5167;52.164;10.530;2022-09-12T04:33:58;14.20;52.70
10245;DHT22;5167;52.164;10.530;2022-09-12T04:36:26;14.10;51.70
10245;DHT22;5167;52.164;10.530;2022-09-12T04:38:52;14.10;51.50
10245;DHT22;5167;52.164;10.530;2022-09-12T04:41:24;14.10;52.40
10245;DHT22;5167;52.164;10.530;2022-09-12T04:43:53;14.00;52.10
10245;DHT22;5167;52.164;10.530;2022-09-12T04:46:19;14.00;53.50
10245;DHT22;5167;52.164;10.530;2022-09-12T04:48:45;14.00;52.50
10245;DHT22;5167;52.164;10.530;2022-09-12T04:51:20;14.00;52.70
10245;DHT22;5167;52.164;10.530;2022-09-12T04:53:51;14.00;53.10
10245;DHT22;5167;52.164;10.530;2022-09-12T04:56:19;13.90;53.10
10245;DHT22;5167;52.164;10.530;2022-09-12T04:58:45;14.00;53.20
10245;DHT22;5167;52.164;10.530;2022-09-12T05:01:19;14.00;53.50
10245;DHT22;5167;52.164;10.530;2022-09-12T05:03:45;14.00;53.10
10245;DHT22;5167;52.164;10.530;2022-09-12T05:06:17;13.90;52.60
10245;DHT22;5167;52.164;10.530;2022-09-12T05:08:43;13.90;52.80
10245;DHT22;5167;52.164;10.530;2022-09-12T05:11:14;13.90;52.30
10245;DHT22;5167;52.164;10.530;2022-09-12T05:13:40;13.90;52.50
10245;DHT22;5167;52.164;10.530;2022-09-12T05:16:07;13.90;52.10
10245;DHT22;5167;52.164;10.530;2022-09-12T05:18:35;13.90;52.40
10245;DHT22;5167;52.164;10.530;2022-09-12T05:21:03;14.00;52.50
10245;DHT22;5167;52.164;10.530;2022-09-12T05:23:29;13.90;52.50
10245;DHT22;5167;52.164;10.530;2022-09-12T05:25:57;14.00;51.50
10245;DHT22;5167;52.164;10.530;2022-09-12T05:28:24;14.00;53.10
10245;DHT22;5167;52.164;10.530;2022-09-12T05:31:04;13.90;52.60
10245;DHT22;5167;52.164;10.530;2022-09-12T05:33:31;14.00;52.90
10245;DHT22;5167;52.164;10.530;2022-09-12T05:35:57;13.90;52.90
10245;DHT22;5167;52.164;10.530;2022-09-12T05:38:23;14.00;53.30
10245;DHT22;5167;52.164;10.530;2022-09-12T05:40:50;14.00;52.80
10245;DHT22;5167;52.164;10.530;2022-09-12T05:43:15;14.00;52.30
10245;DHT22;5167;52.164;10.530;2022-09-12T05:45:41;14.00;51.80
10245;DHT22;5167;52.164;10.530;2022-09-12T05:48:07;14.00;52.10
10245;DHT22;5167;52.164;10.530;2022-09-12T05:50:32;13.90;53.10
10245;DHT22;5167;52.164;10.530;2022-09-12T05:52:58;13.90;53.10
10245;DHT22;5167;52.164;10.530;2022-09-12T05:55:23;14.00;53.10
10245;DHT22;5167;52.164;10.530;2022-09-12T05:57:49;14.00;53.70
10245;DHT22;5167;52.164;10.530;2022-09-12T06:00:16;14.00;53.80
10245;DHT22;5167;52.164;10.530;2022-09-12T06:02:42;14.00;53.70
10245;DHT22;5167;52.164;10.530;2022-09-12T06:05:07;14.10;54.80
10245;DHT22;5167;52.164;10.530;2022-09-12T06:07:33;14.10;55.40
10245;DHT22;5167;52.164;10.530;2022-09-12T06:10:00;14.10;55.00
10245;DHT22;5167;52.164;10.530;2022-09-12T06:12:28;14.10;56.00
10245;DHT22;5167;52.164;10.530;2022-09-12T06:14:54;14.20;55.90
10245;DHT22;5167;52.164;10.530;2022-09-12T06:17:20;14.20;57.20
10245;DHT22;5167;52.164;10.530;2022-09-12T06:19:46;14.30;58.00
10245;DHT22;5167;52.164;10.530;2022-09-12T06:22:12;14.30;58.30
10245;DHT22;5167;52.164;10.530;2022-09-12T06:24:38;14.40;58.90
10245;DHT22;5167;52.164;10.530;2022-09-12T06:27:04;14.40;59.60
10245;DHT22;5167;52.164;10.530;2022-09-12T06:29:30;14.50;60.40
10245;DHT22;5167;52.164;10.530;2022-09-12T06:31:57;14.60;59.20
10245;DHT22;5167;52.164;10.530;2022-09-12T06:34:23;14.60;60.20
10245;DHT22;5167;52.164;10.530;2022-09-12T06:36:51;14.60;60.40
10245;DHT22;5167;52.164;10.530;2022-09-12T06:39:19;14.80;59.90
10245;DHT22;5167;52.164;10.530;2022-09-12T06:41:45;14.90;61.10
10245;DHT22;5167;52.164;10.530;2022-09-12T06:44:17;14.90;61.30
10245;DHT22;5167;52.164;10.530;2022-09-12T06:46:43;15.00;59.90
10245;DHT22;5167;52.164;10.530;2022-09-12T06:49:09;15.10;60.60
10245;DHT22;5167;52.164;10.530;2022-09-12T06:51:35;15.20;60.00
10245;DHT22;5167;52.164;10.530;2022-09-12T06:54:02;15.30;61.30
10245;DHT22;5167;52.164;10.530;2022-09-12T06:56:28;15.40;61.10
10245;DHT22;5167;52.164;10.530;2022-09-12T06:58:57;15.60;59.40
10245;DHT22;5167;52.164;10.530;2022-09-12T07:01:28;15.80;60.10
10245;DHT22;5167;52.164;10.530;2022-09-12T07:03:56;15.90;60.00
10245;DHT22;5167;52.164;10.530;2022-09-12T07:06:26;16.00;59.20
10245;DHT22;5167;52.164;10.530;2022-09-12T07:08:59;16.10;58.70
10245;DHT22;5167;52.164;10.530;2022-09-12T07:11:28;16.40;57.30
10245;DHT22;5167;52.164;10.530;2022-09-12T07:13:57;16.60;56.10
10245;DHT22;5167;52.164;10.530;2022-09-12T07:16:23;16.70;55.70
10245;DHT22;5167;52.164;10.530;2022-09-12T07:19:00;16.90;54.70
10245;DHT22;5167;52.164;10.530;2022-09-12T07:21:26;17.00;52.20
10245;DHT22;5167;52.164;10.530;2022-09-12T07:23:52;17.10;50.80
10245;DHT22;5167;52.164;10.530;2022-09-12T07:26:19;17.30;49.10
10245;DHT22;5167;52.164;10.530;2022-09-12T07:28:50;17.40;48.20
10245;DHT22;5167;52.164;10.530;2022-09-12T07:31:17;17.60;47.00
10245;DHT22;5167;52.164;10.530;2022-09-12T07:33:43;17.70;46.00
10245;DHT22;5167;52.164;10.530;2022-09-12T07:36:14;17.90;45.80
10245;DHT22;5167;52.164;10.530;2022-09-12T07:38:41;18.10;44.70
10245;DHT22;5167;52.164;10.530;2022-09-12T07:41:18;18.30;43.20
10245;DHT22;5167;52.164;10.530;2022-09-12T07:43:44;18.40;40.60
10245;DHT22;5167;52.164;10.530;2022-09-12T07:46:10;18.50;39.70
10245;DHT22;5167;52.164;10.530;2022-09-12T07:48:36;18.80;38.70
10245;DHT22;5167;52.164;10.530;2022-09-12T07:51:11;18.80;36.70
10245;DHT22;5167;52.164;10.530;2022-09-12T07:53:39;19.00;36.00
10245;DHT22;5167;52.164;10.530;2022-09-12T07:56:06;19.10;35.00
10245;DHT22;5167;52.164;10.530;2022-09-12T07:58:33;19.20;36.00
10245;DHT22;5167;52.164;10.530;2022-09-12T08:03:37;19.40;32.90
10245;DHT22;5167;52.164;10.530;2022-09-12T08:06:08;19.50;34.20
10245;DHT22;5167;52.164;10.530;2022-09-12T08:08:35;19.60;32.80
10245;DHT22;5167;52.164;10.530;2022-09-12T08:11:03;19.70;31.90
10245;DHT22;5167;52.164;10.530;2022-09-12T08:13:30;19.80;32.40
10245;DHT22;5167;52.164;10.530;2022-09-12T08:15:57;19.90;32.10
10245;DHT22;5167;52.164;10.530;2022-09-12T08:18:27;19.90;30.90
10245;DHT22;5167;52.164;10.530;2022-09-12T08:21:02;20.00;30.00
10245;DHT22;5167;52.164;10.530;2022-09-12T08:23:28;20.10;29.40
10245;DHT22;5167;52.164;10.530;2022-09-12T08:25:56;20.10;29.40
10245;DHT22;5167;52.164;10.530;2022-09-12T08:28:22;20.30;30.30
10245;DHT22;5167;52.164;10.530;2022-09-12T08:30:48;20.30;30.30
10245;DHT22;5167;52.164;10.530;2022-09-12T08:33:14;20.40;30.20
10245;DHT22;5167;52.164;10.530;2022-09-12T08:35:39;20.50;29.00
10245;DHT22;5167;52.164;10.530;2022-09-12T08:38:05;20.60;28.70
10245;DHT22;5167;52.164;10.530;2022-09-12T08:40:33;20.70;30.40
10245;DHT22;5167;52.164;10.530;2022-09-12T08:43:16;20.80;29.40
10245;DHT22;5167;52.164;10.530;2022-09-12T08:45:54;20.90;29.70
10245;DHT22;5167;52.164;10.530;2022-09-12T08:48:22;21.10;27.60
10245;DHT22;5167;52.164;10.530;2022-09-12T08:50:48;21.20;26.10
10245;DHT22;5167;52.164;10.530;2022-09-12T08:53:18;21.30;27.00
10245;DHT22;5167;52.164;10.530;2022-09-12T08:56:05;21.40;24.80
10245;DHT22;5167;52.164;10.530;2022-09-12T08:58:38;21.60;24.60
10245;DHT22;5167;52.164;10.530;2022-09-12T09:01:26;21.70;20.80
10245;DHT22;5167;52.164;10.530;2022-09-12T09:11:44;22.20;19.20
10245;DHT22;5167;52.164;10.530;2022-09-12T09:14:41;22.40;18.10
10245;DHT22;5167;52.164;10.530;2022-09-12T09:17:30;22.50;16.90
10245;DHT22;5167;52.164;10.530;2022-09-12T09:22:57;23.00;13.00
10245;DHT22;5167;52.164;10.530;2022-09-12T09:25:57;23.10;10.60
10245;DHT22;5167;52.164;10.530;2022-09-12T09:28:33;23.20;8.00
10245;DHT22;5167;52.164;10.530;2022-09-12T09:31:00;23.20;7.00
10245;DHT22;5167;52.164;10.530;2022-09-12T09:33:32;23.20;6.50
10245;DHT22;5167;52.164;10.530;2022-09-12T09:36:15;23.30;5.20
10245;DHT22;5167;52.164;10.530;2022-09-12T09:38:49;23.40;7.10
10245;DHT22;5167;52.164;10.530;2022-09-12T09:44:05;23.70;6.40
10245;DHT22;5167;52.164;10.530;2022-09-12T09:46:31;23.80;6.20
10245;DHT22;5167;52.164;10.530;2022-09-12T09:48:59;24.00;5.00
10245;DHT22;5167;52.164;10.530;2022-09-12T09:51:32;24.10;5.00
10245;DHT22;5167;52.164;10.530;2022-09-12T09:54:38;24.20;5.00
10245;DHT22;5167;52.164;10.530;2022-09-12T10:00:26;24.40;5.00
10245;DHT22;5167;52.164;10.530;2022-09-12T10:03:23;24.40;5.00
10245;DHT22;5167;52.164;10.530;2022-09-12T10:05:56;24.50;5.00
10245;DHT22;5167;52.164;10.530;2022-09-12T10:11:02;24.70;5.00
10245;DHT22;5167;52.164;10.530;2022-09-12T10:13:56;24.70;5.00
10245;DHT22;5167;52.164;10.530;2022-09-12T10:18:49;24.70;5.00
10245;DHT22;5167;52.164;10.530;2022-09-12T10:21:37;24.70;5.00
10245;DHT22;5167;52.164;10.530;2022-09-12T10:27:06;24.80;5.00
10245;DHT22;5167;52.164;10.530;2022-09-12T10:29:38;24.70;5.00
10245;DHT22;5167;52.164;10.530;2022-09-12T10:32:08;24.80;5.00
10245;DHT22;5167;52.164;10.530;2022-09-12T10:34:43;24.90;5.00
10245;DHT22;5167;52.164;10.530;2022-09-12T10:37:30;24.90;5.00
10245;DHT22;5167;52.164;10.530;2022-09-12T10:39:58;24.90;5.00
10245;DHT22;5167;52.164;10.530;2022-09-12T10:42:44;24.90;5.00
10245;DHT22;5167;52.164;10.530;2022-09-12T10:47:47;24.90;5.00
10245;DHT22;5167;52.164;10.530;2022-09-12T10:50:23;24.90;5.00
10245;DHT22;5167;52.164;10.530;2022-09-12T10:52:54;25.00;5.00
10245;DHT22;5167;52.164;10.530;2022-09-12T10:55:37;25.00;5.00
10245;DHT22;5167;52.164;10.530;2022-09-12T11:00:45;24.90;5.00
10245;DHT22;5167;52.164;10.530;2022-09-12T11:03:21;24.90;5.00
10245;DHT22;5167;52.164;10.530;2022-09-12T11:05:55;24.80;5.00
10245;DHT22;5167;52.164;10.530;2022-09-12T11:13:53;24.90;5.00
10245;DHT22;5167;52.164;10.530;2022-09-12T11:22:08;24.80;5.00
10245;DHT22;5167;52.164;10.530;2022-09-12T11:30:36;25.00;5.00
10245;DHT22;5167;52.164;10.530;2022-09-12T11:33:29;25.00;5.00
10245;DHT22;5167;52.164;10.530;2022-09-12T11:35:59;25.10;5.00
10245;DHT22;5167;52.164;10.530;2022-09-12T11:38:50;25.10;5.00
10245;DHT22;5167;52.164;10.530;2022-09-12T11:51:57;25.00;5.00
10245;DHT22;5167;52.164;10.530;2022-09-12T11:54:40;25.10;5.00
10245;DHT22;5167;52.164;10.530;2022-09-12T12:00:05;25.20;5.00
10245;DHT22;5167;52.164;10.530;2022-09-12T12:08:16;25.00;5.00
10245;DHT22;5167;52.164;10.530;2022-09-12T12:11:02;25.00;5.00
10245;DHT22;5167;52.164;10.530;2022-09-12T12:13:35;25.00;5.00
10245;DHT22;5167;52.164;10.530;2022-09-12T12:16:30;25.00;5.00
10245;DHT22;5167;52.164;10.530;2022-09-12T12:19:03;25.00;5.00
10245;DHT22;5167;52.164;10.530;2022-09-12T12:21:49;25.00;5.00
10245;DHT22;5167;52.164;10.530;2022-09-12T12:24:24;24.90;5.00
10245;DHT22;5167;52.164;10.530;2022-09-12T12:26:59;25.00;5.00
10245;DHT22;5167;52.164;10.530;2022-09-12T12:34:38;25.00;5.00
10245;DHT22;5167;52.164;10.530;2022-09-12T12:47:47;24.80;5.00
10245;DHT22;5167;52.164;10.530;2022-09-12T12:57:55;24.90;5.00
10245;DHT22;5167;52.164;10.530;2022-09-12T13:06:00;24.90;5.00
10245;DHT22;5167;52.164;10.530;2022-09-12T13:08:27;24.90;5.00
10245;DHT22;5167;52.164;10.530;2022-09-12T13:13:47;24.90;5.00
10245;DHT22;5167;52.164;10.530;2022-09-12T13:16:10;24.80;5.00
10245;DHT22;5167;52.164;10.530;2022-09-12T13:18:47;24.80;5.00
10245;DHT22;5167;52.164;10.530;2022-09-12T13:21:16;24.80;5.00
10245;DHT22;5167;52.164;10.530;2022-09-12T13:23:42;24.80;5.00
10245;DHT22;5167;52.164;10.530;2022-09-12T13:26:20;24.80;5.00
10245;DHT22;5167;52.164;10.530;2022-09-12T13:28:46;24.90;5.00
10245;DHT22;5167;52.164;10.530;2022-09-12T13:31:23;24.80;5.00
10245;DHT22;5167;52.164;10.530;2022-09-12T13:33:52;24.90;5.00
10245;DHT22;5167;52.164;10.530;2022-09-12T13:44:59;24.90;5.00
10245;DHT22;5167;52.164;10.530;2022-09-12T13:47:36;24.90;5.00
10245;DHT22;5167;52.164;10.530;2022-09-12T13:50:05;24.90;5.00
10245;DHT22;5167;52.164;10.530;2022-09-12T13:52:34;24.90;5.00
10245;DHT22;5167;52.164;10.530;2022-09-12T13:55:05;24.90;5.00
10245;DHT22;5167;52.164;10.530;2022-09-12T13:57:35;24.90;5.00
10245;DHT22;5167;52.164;10.530;2022-09-12T14:00:17;24.90;5.00
10245;DHT22;5167;52.164;10.530;2022-09-12T14:02:47;24.90;5.00
10245;DHT22;5167;52.164;10.530;2022-09-12T14:05:20;24.90;5.00
10245;DHT22;5167;52.164;10.530;2022-09-12T14:07:59;24.90;5.00
10245;DHT22;5167;52.164;10.530;2022-09-12T14:10:39;25.00;5.00
10245;DHT22;5167;52.164;10.530;2022-09-12T14:13:15;24.90;5.00
10245;DHT22;5167;52.164;10.530;2022-09-12T14:15:50;24.90;5.00
10245;DHT22;5167;52.164;10.530;2022-09-12T14:18:31;25.00;5.00
10245;DHT22;5167;52.164;10.530;2022-09-12T14:21:08;25.00;5.00
10245;DHT22;5167;52.164;10.530;2022-09-12T14:23:39;25.00;5.00
10245;DHT22;5167;52.164;10.530;2022-09-12T14:26:09;24.90;5.00
10245;DHT22;5167;52.164;10.530;2022-09-12T14:28:41;24.90;5.00
10245;DHT22;5167;52.164;10.530;2022-09-12T14:33:54;25.00;5.00
10245;DHT22;5167;52.164;10.530;2022-09-12T14:36:30;25.00;5.00
10245;DHT22;5167;52.164;10.530;2022-09-12T14:39:06;25.00;5.00
10245;DHT22;5167;52.164;10.530;2022-09-12T14:41:40;25.00;5.00
10245;DHT22;5167;52.164;10.530;2022-09-12T14:44:29;25.00;5.00
10245;DHT22;5167;52.164;10.530;2022-09-12T14:46:54;25.00;5.00
10245;DHT22;5167;52.164;10.530;2022-09-12T14:49:32;25.00;5.00
10245;DHT22;5167;52.164;10.530;2022-09-12T14:54:57;25.10;5.00
10245;DHT22;5167;52.164;10.530;2022-09-12T15:02:38;25.00;5.00
10245;DHT22;5167;52.164;10.530;2022-09-12T15:07:39;24.90;5.00
10245;DHT22;5167;52.164;10.530;2022-09-12T15:12:42;24.90;5.00
10245;DHT22;5167;52.164;10.530;2022-09-12T15:15:19;24.90;5.00
10245;DHT22;5167;52.164;10.530;2022-09-12T15:17:45;24.80;5.00
10245;DHT22;5167;52.164;10.530;2022-09-12T15:20:12;24.80;5.00
10245;DHT22;5167;52.164;10.530;2022-09-12T15:22:39;24.80;5.00
10245;DHT22;5167;52.164;10.530;2022-09-12T15:25:06;24.90;5.00
10245;DHT22;5167;52.164;10.530;2022-09-12T15:27:33;24.90;5.00
10245;DHT22;5167;52.164;10.530;2022-09-12T15:29:58;24.90;5.00
10245;DHT22;5167;52.164;10.530;2022-09-12T15:32:26;24.80;5.00
10245;DHT22;5167;52.164;10.530;2022-09-12T15:34:53;24.80;5.00
10245;DHT22;5167;52.164;10.530;2022-09-12T15:37:20;24.80;5.00
10245;DHT22;5167;52.164;10.530;2022-09-12T15:39:47;24.70;5.00
10245;DHT22;5167;52.164;10.530;2022-09-12T15:42:14;24.70;5.00
10245;DHT22;5167;52.164;10.530;2022-09-12T15:44:40;24.70;5.00
10245;DHT22;5167;52.164;10.530;2022-09-12T15:47:07;24.70;5.00
10245;DHT22;5167;52.164;10.530;2022-09-12T15:49:34;24.70;5.00
10245;DHT22;5167;52.164;10.530;2022-09-12T15:51:59;24.70;5.00
10245;DHT22;5167;52.164;10.530;2022-09-12T15:54:25;24.60;5.00
10245;DHT22;5167;52.164;10.530;2022-09-12T15:56:51;24.60;5.00
10245;DHT22;5167;52.164;10.530;2022-09-12T15:59:16;24.60;5.00
10245;DHT22;5167;52.164;10.530;2022-09-12T16:01:42;24.60;5.00
10245;DHT22;5167;52.164;10.530;2022-09-12T16:04:22;24.60;5.00
10245;DHT22;5167;52.164;10.530;2022-09-12T16:06:51;24.60;5.00
10245;DHT22;5167;52.164;10.530;2022-09-12T16:09:17;24.60;5.00
10245;DHT22;5167;52.164;10.530;2022-09-12T16:11:43;24.50;5.00
10245;DHT22;5167;52.164;10.530;2022-09-12T16:14:16;24.50;5.00
10245;DHT22;5167;52.164;10.530;2022-09-12T16:16:43;24.50;5.00
10245;DHT22;5167;52.164;10.530;2022-09-12T16:19:10;24.40;5.00
10245;DHT22;5167;52.164;10.530;2022-09-12T16:21:36;24.40;5.00
10245;DHT22;5167;52.164;10.530;2022-09-12T16:24:02;24.50;5.00
10245;DHT22;5167;52.164;10.530;2022-09-12T16:26:28;24.40;5.00
10245;DHT22;5167;52.164;10.530;2022-09-12T16:28:58;24.40;5.00
10245;DHT22;5167;52.164;10.530;2022-09-12T16:31:25;24.40;5.00
10245;DHT22;5167;52.164;10.530;2022-09-12T16:33:50;24.40;5.00
10245;DHT22;5167;52.164;10.530;2022-09-12T16:36:18;24.30;5.00
10245;DHT22;5167;52.164;10.530;2022-09-12T16:38:49;24.40;5.00
10245;DHT22;5167;52.164;10.530;2022-09-12T16:41:16;24.30;5.00
10245;DHT22;5167;52.164;10.530;2022-09-12T16:43:43;24.30;5.00
10245;DHT22;5167;52.164;10.530;2022-09-12T16:46:14;24.30;5.00
10245;DHT22;5167;52.164;10.530;2022-09-12T16:48:44;24.30;5.00
10245;DHT22;5167;52.164;10.530;2022-09-12T16:51:11;24.20;5.00
10245;DHT22;5167;52.164;10.530;2022-09-12T16:53:38;24.20;5.00
10245;DHT22;5167;52.164;10.530;2022-09-12T16:56:04;24.20;5.00
10245;DHT22;5167;52.164;10.530;2022-09-12T16:58:35;24.20;5.00
10245;DHT22;5167;52.164;10.530;2022-09-12T17:01:09;24.10;5.00
10245;DHT22;5167;52.164;10.530;2022-09-12T17:03:35;24.10;5.00
10245;DHT22;5167;52.164;10.530;2022-09-12T17:06:09;24.10;5.00
10245;DHT22;5167;52.164;10.530;2022-09-12T17:08:38;24.10;5.00
10245;DHT22;5167;52.164;10.530;2022-09-12T17:11:09;24.10;5.00
10245;DHT22;5167;52.164;10.530;2022-09-12T17:13:36;24.00;5.00
10245;DHT22;5167;52.164;10.530;2022-09-12T17:16:09;24.00;5.00
10245;DHT22;5167;52.164;10.530;2022-09-12T17:18:38;23.90;5.00
10245;DHT22;5167;52.164;10.530;2022-09-12T17:21:09;23.90;5.00
10245;DHT22;5167;52.164;10.530;2022-09-12T17:23:35;23.80;5.00
10245;DHT22;5167;52.164;10.530;2022-09-12T17:26:00;23.80;5.00
10245;DHT22;5167;52.164;10.530;2022-09-12T17:28:26;23.80;5.00
10245;DHT22;5167;52.164;10.530;2022-09-12T17:31:11;23.70;5.00
10245;DHT22;5167;52.164;10.530;2022-09-12T17:33:38;23.70;5.00
10245;DHT22;5167;52.164;10.530;2022-09-12T17:36:09;23.60;5.00
10245;DHT22;5167;52.164;10.530;2022-09-12T17:38:36;23.60;5.00
10245;DHT22;5167;52.164;10.530;2022-09-12T17:41:11;23.50;5.00
10245;DHT22;5167;52.164;10.530;2022-09-12T17:43:40;23.40;5.00
10245;DHT22;5167;52.164;10.530;2022-09-12T17:46:06;23.40;5.00
10245;DHT22;5167;52.164;10.530;2022-09-12T17:48:32;23.40;5.00
10245;DHT22;5167;52.164;10.530;2022-09-12T17:51:04;23.30;5.00
10245;DHT22;5167;52.164;10.530;2022-09-12T17:53:30;23.30;5.00
10245;DHT22;5167;52.164;10.530;2022-09-12T17:56:00;23.20;5.00
10245;DHT22;5167;52.164;10.530;2022-09-12T17:58:26;23.20;5.00
10245;DHT22;5167;52.164;10.530;2022-09-12T18:00:52;23.20;5.00
10245;DHT22;5167;52.164;10.530;2022-09-12T18:03:42;23.10;5.00
10245;DHT22;5167;52.164;10.530;2022-09-12T18:06:08;23.00;5.00
10245;DHT22;5167;52.164;10.530;2022-09-12T18:08:34;22.90;5.00
10245;DHT22;5167;52.164;10.530;2022-09-12T18:11:08;22.90;5.00
10245;DHT22;5167;52.164;10.530;2022-09-12T18:13:34;22.80;5.00
10245;DHT22;5167;52.164;10.530;2022-09-12T18:16:08;22.80;5.00
10245;DHT22;5167;52.164;10.530;2022-09-12T18:18:34;22.60;5.00
10245;DHT22;5167;52.164;10.530;2022-09-12T18:21:01;22.60;5.00
10245;DHT22;5167;52.164;10.530;2022-09-12T18:23:28;22.60;5.00
10245;DHT22;5167;52.164;10.530;2022-09-12T18:26:02;22.50;5.00
10245;DHT22;5167;52.164;10.530;2022-09-12T18:28:31;22.40;5.00
10245;DHT22;5167;52.164;10.530;2022-09-12T18:30:57;22.30;5.00
10245;DHT22;5167;52.164;10.530;2022-09-12T18:33:22;22.30;5.00
10245;DHT22;5167;52.164;10.530;2022-09-12T18:35:48;22.20;5.00
10245;DHT22;5167;52.164;10.530;2022-09-12T18:38:14;22.20;5.00
10245;DHT22;5167;52.164;10.530;2022-09-12T18:40:39;22.10;5.00
10245;DHT22;5167;52.164;10.530;2022-09-12T18:43:05;22.00;5.00
10245;DHT22;5167;52.164;10.530;2022-09-12T18:45:30;22.00;5.00
10245;DHT22;5167;52.164;10.530;2022-09-12T18:47:56;22.00;5.00
10245;DHT22;5167;52.164;10.530;2022-09-12T18:50:22;21.80;5.00
10245;DHT22;5167;52.164;10.530;2022-09-12T18:52:51;21.80;5.00
10245;DHT22;5167;52.164;10.530;2022-09-12T18:55:17;21.80;5.00